Time;durP1;ratioP1;P1;durP2;ratioP2;P2;SDS_P1;SDS_P2;PMS_P1;PMS_P2;Temp;Humidity;BMP_temperature;BMP_pressure;BME280_temperature;BME280_humidity;BME280_pressure;Samples;Min_cycle;Max_cycle;Signal;HPM_P1;HPM_P2
2022/03/19 00:01:01;;;;;;;4.35;1.60;;;;;;;;;;5089001;28;20097;-70
2022/03/19 00:03:27;;;;;;;6.22;1.90;;;;;;;;;;5089089;28;20079;-70
2022/03/19 00:05:54;;;;;;;4.97;1.50;;;;;;;;;;5088660;28;20100;-70
2022/03/19 00:08:20;;;;;;;5.65;1.42;;;;;;;;;;5088955;28;20414;-70
2022/03/19 00:10:46;;;;;;;4.18;1.40;;;;;;;;;;5089118;28;20040;-69
2022/03/19 00:13:12;;;;;;;5.68;1.73;;;;;;;;;;5088983;28;20043;-70
2022/03/19 00:15:39;;;;;;;5.60;1.90;;;;;;;;;;5088856;28;20072;-70
2022/03/19 00:18:05;;;;;;;7.47;2.10;;;;;;;;;;5088809;28;20050;-69
2022/03/19 00:20:31;;;;;;;5.45;1.50;;;;;;;;;;5088807;28;20181;-68
2022/03/19 00:22:57;;;;;;;5.20;1.27;;;;;;;;;;5086933;28;20101;-68
2022/03/19 00:25:24;;;;;;;3.58;1.48;;;;;;;;;;5088954;28;20052;-68
2022/03/19 00:27:50;;;;;;;5.78;1.58;;;;;;;;;;5088507;28;20040;-69
2022/03/19 00:30:16;;;;;;;4.95;1.77;;;;;;;;;;5088523;28;20125;-68
2022/03/19 00:32:42;;;;;;;5.15;1.60;;;;;;;;;;5070367;28;20044;-68
2022/03/19 00:35:08;;;;;;;6.20;1.50;;;;;;;;;;5086918;28;20056;-68
2022/03/19 00:37:44;;;;;;;4.25;1.30;;;;;;;;;;5088511;28;20036;-68
2022/03/19 00:40:11;;;;;;;4.72;1.50;;;;;;;;;;5088791;28;20410;-68
2022/03/19 00:42:37;;;;;;;6.15;1.80;;;;;;;;;;5088321;28;20044;-68
2022/03/19 00:45:04;;;;;;;4.43;1.15;;;;;;;;;;5087799;28;20048;-68
2022/03/19 00:47:30;;;;;;;4.28;1.50;;;;;;;;;;5087089;28;20040;-68
2022/03/19 00:49:56;;;;;;;4.47;1.52;;;;;;;;;;5088042;28;20561;-68
2022/03/19 00:52:22;;;;;;;4.68;1.42;;;;;;;;;;5088064;28;20083;-68
2022/03/19 00:54:48;;;;;;;3.47;1.27;;;;;;;;;;5088205;28;20046;-70
2022/03/19 00:57:14;;;;;;;4.10;1.45;;;;;;;;;;5088561;28;20056;-70
2022/03/19 00:59:40;;;;;;;4.88;1.35;;;;;;;;;;5069436;28;20407;-68
2022/03/19 01:02:06;;;;;;;5.72;1.63;;;;;;;;;;5086935;28;20050;-69
2022/03/19 01:04:32;;;;;;;6.10;1.35;;;;;;;;;;5070084;28;20047;-69
2022/03/19 01:06:58;;;;;;;4.97;1.40;;;;;;;;;;5088251;28;20406;-69
2022/03/19 01:09:24;;;;;;;5.32;1.45;;;;;;;;;;5088299;28;20332;-69
2022/03/19 01:11:51;;;;;;;4.88;1.70;;;;;;;;;;5086793;28;20064;-69
2022/03/19 01:14:17;;;;;;;4.00;1.58;;;;;;;;;;5087688;28;20048;-69
2022/03/19 01:16:43;;;;;;;7.22;1.30;;;;;;;;;;5087839;28;20128;-69
2022/03/19 01:19:09;;;;;;;5.53;1.33;;;;;;;;;;5088388;28;20044;-69
2022/03/19 01:21:35;;;;;;;4.13;1.33;;;;;;;;;;5087474;28;20087;-69
2022/03/19 01:24:02;;;;;;;6.72;1.50;;;;;;;;;;5087284;28;20048;-69
2022/03/19 01:26:28;;;;;;;5.05;1.30;;;;;;;;;;5087449;28;20109;-69
2022/03/19 01:28:54;;;;;;;5.47;1.30;;;;;;;;;;5086873;28;20090;-69
2022/03/19 01:31:26;;;;;;;3.80;1.38;;;;;;;;;;5087515;28;20472;-68
2022/03/19 01:33:55;;;;;;;3.63;1.40;;;;;;;;;;5086749;28;20056;-69
2022/03/19 01:36:21;;;;;;;7.45;1.30;;;;;;;;;;5085963;28;20189;-69
2022/03/19 01:38:47;;;;;;;6.00;1.70;;;;;;;;;;5086878;28;20532;-69
2022/03/19 01:41:13;;;;;;;5.97;1.15;;;;;;;;;;5087183;28;20062;-70
2022/03/19 01:43:40;;;;;;;4.05;1.23;;;;;;;;;;5087203;28;20509;-69
2022/03/19 01:46:09;;;;;;;4.60;1.55;;;;;;;;;;5090178;28;20052;-69
2022/03/19 01:48:35;;;;;;;4.57;0.95;;;;;;;;;;5091013;28;20126;-69
2022/03/19 01:51:01;;;;;;;4.50;1.30;;;;;;;;;;5090010;28;20048;-69
2022/03/19 01:53:28;;;;;;;6.90;1.45;;;;;;;;;;5091275;28;20189;-69
2022/03/19 01:55:54;;;;;;;5.80;1.50;;;;;;;;;;5090842;28;20040;-69
2022/03/19 01:58:20;;;;;;;5.13;1.30;;;;;;;;;;5090819;28;20407;-69
2022/03/19 02:00:46;;;;;;;6.68;2.05;;;;;;;;;;5089010;28;20044;-69
2022/03/19 02:03:13;;;;;;;5.60;1.52;;;;;;;;;;5091161;28;20040;-69
2022/03/19 02:05:39;;;;;;;6.03;1.38;;;;;;;;;;5089726;28;20135;-69
2022/03/19 02:08:05;;;;;;;4.07;1.35;;;;;;;;;;5090533;28;20050;-71
2022/03/19 02:10:34;;;;;;;4.57;1.60;;;;;;;;;;5089777;28;20048;-71
2022/03/19 02:13:00;;;;;;;6.70;1.65;;;;;;;;;;5072835;28;20044;-71
2022/03/19 02:15:26;;;;;;;6.28;1.20;;;;;;;;;;5089725;28;20050;-71
2022/03/19 02:17:52;;;;;;;4.55;1.40;;;;;;;;;;5090480;28;20043;-71
2022/03/19 02:20:18;;;;;;;6.90;1.25;;;;;;;;;;5091387;28;20060;-71
2022/03/19 02:25:34;;;;;;;5.38;1.30;;;;;;;;;;5089716;28;20050;-70
2022/03/19 02:25:36;;;;;;;4.93;1.35;;;;;;;;;;5090784;28;20093;-71
2022/03/19 02:28:02;;;;;;;5.38;1.50;;;;;;;;;;5090944;28;20067;-70
2022/03/19 02:30:29;;;;;;;4.25;1.20;;;;;;;;;;5089374;28;20048;-70
2022/03/19 02:32:55;;;;;;;3.50;1.63;;;;;;;;;;5090649;28;20071;-70
2022/03/19 02:35:21;;;;;;;5.40;1.20;;;;;;;;;;5090654;28;20417;-70
2022/03/19 02:37:48;;;;;;;3.13;1.02;;;;;;;;;;5090299;28;20054;-70
2022/03/19 02:40:16;;;;;;;3.75;1.30;;;;;;;;;;5091083;28;20048;-70
2022/03/19 02:42:42;;;;;;;4.45;1.25;;;;;;;;;;5091018;28;20040;-70
2022/03/19 02:45:08;;;;;;;5.03;1.70;;;;;;;;;;5090882;28;20408;-70
2022/03/19 02:47:56;;;;;;;3.95;1.15;;;;;;;;;;5072550;28;20505;-70
2022/03/19 02:50:21;;;;;;;4.85;1.95;;;;;;;;;;5071745;28;20056;-70
2022/03/19 02:52:47;;;;;;;3.10;1.05;;;;;;;;;;5072464;28;20051;-70
2022/03/19 02:55:13;;;;;;;4.03;1.17;;;;;;;;;;5090103;28;20494;-70
2022/03/19 02:57:39;;;;;;;3.50;0.90;;;;;;;;;;5089332;28;20675;-70
2022/03/19 03:00:06;;;;;;;4.28;1.30;;;;;;;;;;5090317;28;20054;-69
2022/03/19 03:02:32;;;;;;;4.65;1.50;;;;;;;;;;5090014;28;20048;-70
2022/03/19 03:04:58;;;;;;;3.55;1.10;;;;;;;;;;5090280;28;20048;-69
2022/03/19 03:07:24;;;;;;;4.80;1.20;;;;;;;;;;5090394;28;20372;-69
2022/03/19 03:09:50;;;;;;;6.40;1.20;;;;;;;;;;5090008;28;20114;-69
2022/03/19 03:12:16;;;;;;;4.07;1.08;;;;;;;;;;5089855;28;20394;-69
2022/03/19 03:14:42;;;;;;;3.65;0.90;;;;;;;;;;5089875;28;20040;-69
2022/03/19 03:17:08;;;;;;;5.15;0.88;;;;;;;;;;5090099;28;20055;-69
2022/03/19 03:19:35;;;;;;;3.63;0.98;;;;;;;;;;5088806;28;20136;-69
2022/03/19 03:22:01;;;;;;;7.13;1.25;;;;;;;;;;5090093;28;20489;-69
2022/03/19 03:24:29;;;;;;;4.38;1.20;;;;;;;;;;5089829;28;20504;-69
2022/03/19 03:26:55;;;;;;;4.18;1.30;;;;;;;;;;5089209;28;20506;-70
2022/03/19 03:29:21;;;;;;;3.80;1.30;;;;;;;;;;5089585;28;20046;-69
2022/03/19 03:31:47;;;;;;;4.07;1.30;;;;;;;;;;5089694;28;20044;-69
2022/03/19 03:34:13;;;;;;;5.28;1.25;;;;;;;;;;5089069;28;20421;-69
2022/03/19 03:36:39;;;;;;;4.47;0.88;;;;;;;;;;5089551;28;20129;-69
2022/03/19 03:39:05;;;;;;;5.15;1.10;;;;;;;;;;5089145;28;20486;-70
2022/03/19 03:41:31;;;;;;;4.32;1.23;;;;;;;;;;5089319;28;20521;-69
2022/03/19 03:43:58;;;;;;;3.65;1.00;;;;;;;;;;5071242;28;20040;-69
2022/03/19 03:46:24;;;;;;;3.17;0.90;;;;;;;;;;5088596;28;20410;-69
2022/03/19 03:48:50;;;;;;;4.97;1.27;;;;;;;;;;5071281;28;20071;-69
2022/03/19 03:51:16;;;;;;;4.10;1.20;;;;;;;;;;5089079;28;20108;-69
2022/03/19 03:53:44;;;;;;;4.28;1.10;;;;;;;;;;5088938;28;20040;-69
2022/03/19 03:56:11;;;;;;;3.00;1.03;;;;;;;;;;5089114;28;20071;-69
2022/03/19 03:58:39;;;;;;;4.25;0.85;;;;;;;;;;5089195;28;20048;-71
2022/03/19 04:01:05;;;;;;;3.90;1.17;;;;;;;;;;5070892;28;20048;-70
2022/03/19 04:03:31;;;;;;;3.53;1.10;;;;;;;;;;5088717;28;20040;-70
2022/03/19 04:05:57;;;;;;;3.45;1.08;;;;;;;;;;5088944;28;20048;-70
2022/03/19 04:08:23;;;;;;;3.53;0.95;;;;;;;;;;5088820;28;20051;-70
2022/03/19 04:10:49;;;;;;;4.57;1.15;;;;;;;;;;5088652;28;20068;-71
2022/03/19 04:13:15;;;;;;;3.80;0.93;;;;;;;;;;5088953;28;20044;-71
2022/03/19 04:15:42;;;;;;;3.97;1.20;;;;;;;;;;5088190;28;20044;-71
2022/03/19 04:18:08;;;;;;;5.43;1.13;;;;;;;;;;5088742;28;20047;-70
2022/03/19 04:20:34;;;;;;;3.67;0.98;;;;;;;;;;5088792;28;20046;-70
2022/03/19 04:23:00;;;;;;;2.70;1.00;;;;;;;;;;5088792;28;20044;-70
2022/03/19 04:25:26;;;;;;;1.95;0.80;;;;;;;;;;5070690;28;20078;-70
2022/03/19 04:27:54;;;;;;;3.13;1.00;;;;;;;;;;5088050;28;20135;-70
2022/03/19 04:30:21;;;;;;;7.78;1.23;;;;;;;;;;5087469;28;20086;-70
2022/03/19 04:32:52;;;;;;;3.50;1.52;;;;;;;;;;5088282;28;20048;-70
2022/03/19 04:38:07;;;;;;;2.80;1.10;;;;;;;;;;5088518;28;20433;-71
2022/03/19 04:40:34;;;;;;;6.25;1.50;;;;;;;;;;5087906;28;20043;-71
2022/03/19 04:43:00;;;;;;;2.35;0.93;;;;;;;;;;5088498;28;20044;-70
2022/03/19 04:45:26;;;;;;;4.07;1.10;;;;;;;;;;5088138;28;20040;-71
2022/03/19 04:47:53;;;;;;;2.72;1.02;;;;;;;;;;5088276;28;20538;-70
2022/03/19 04:50:19;;;;;;;6.60;1.10;;;;;;;;;;5088855;28;20452;-71
2022/03/19 04:52:45;;;;;;;4.32;1.10;;;;;;;;;;5087521;28;20048;-71
2022/03/19 04:55:11;;;;;;;4.13;1.10;;;;;;;;;;5088445;28;20072;-71
2022/03/19 04:57:44;;;;;;;4.93;0.90;;;;;;;;;;5087959;28;20044;-72
2022/03/19 05:00:12;;;;;;;5.32;1.00;;;;;;;;;;5088538;28;20047;-71
2022/03/19 05:02:38;;;;;;;4.53;1.17;;;;;;;;;;5088072;28;20489;-72
2022/03/19 05:05:04;;;;;;;2.15;0.90;;;;;;;;;;5088548;28;20044;-71
2022/03/19 05:07:35;;;;;;;3.30;1.08;;;;;;;;;;5088697;28;20089;-71
2022/03/19 05:12:49;;;;;;;6.50;1.45;;;;;;;;;;5088155;28;20472;-71
2022/03/19 05:15:16;;;;;;;3.40;0.80;;;;;;;;;;5088256;28;20083;-71
2022/03/19 05:17:42;;;;;;;5.90;1.48;;;;;;;;;;5088420;28;20162;-71
2022/03/19 05:20:09;;;;;;;3.28;1.10;;;;;;;;;;5090370;28;20072;-71
2022/03/19 05:22:35;;;;;;;3.45;1.00;;;;;;;;;;5091581;28;20040;-72
2022/03/19 05:25:01;;;;;;;5.00;1.10;;;;;;;;;;5073945;28;20135;-72
2022/03/19 05:27:27;;;;;;;5.03;1.05;;;;;;;;;;5091943;28;20492;-71
2022/03/19 05:29:53;;;;;;;4.78;1.13;;;;;;;;;;5091326;28;20544;-70
2022/03/19 05:32:20;;;;;;;3.85;1.10;;;;;;;;;;5090333;28;20040;-69
2022/03/19 05:34:46;;;;;;;4.35;0.90;;;;;;;;;;5092121;28;20117;-71
2022/03/19 05:37:13;;;;;;;2.47;0.80;;;;;;;;;;5090633;28;20055;-69
2022/03/19 05:39:40;;;;;;;5.07;1.15;;;;;;;;;;5090606;28;20040;-70
2022/03/19 05:42:06;;;;;;;3.63;0.90;;;;;;;;;;5092078;28;20418;-71
2022/03/19 05:44:32;;;;;;;2.33;1.00;;;;;;;;;;5092316;28;20401;-71
2022/03/19 05:46:58;;;;;;;4.80;1.17;;;;;;;;;;5073727;28;20097;-70
2022/03/19 05:49:25;;;;;;;3.55;0.98;;;;;;;;;;5073536;28;20093;-70
2022/03/19 05:51:51;;;;;;;3.50;1.10;;;;;;;;;;5091713;28;20044;-71
2022/03/19 05:54:18;;;;;;;2.80;0.95;;;;;;;;;;5073264;28;20447;-70
2022/03/19 05:56:44;;;;;;;4.85;1.35;;;;;;;;;;5091101;28;20128;-71
2022/03/19 05:59:10;;;;;;;6.65;1.35;;;;;;;;;;5073455;28;20524;-73
2022/03/19 06:01:36;;;;;;;3.92;1.20;;;;;;;;;;5091701;28;20154;-71
2022/03/19 06:04:02;;;;;;;3.17;1.00;;;;;;;;;;5073393;28;20052;-70
2022/03/19 06:06:28;;;;;;;2.60;0.88;;;;;;;;;;5091120;28;20043;-70
2022/03/19 06:08:55;;;;;;;4.55;1.00;;;;;;;;;;5090729;28;20083;-71
2022/03/19 06:11:21;;;;;;;3.75;1.10;;;;;;;;;;5091312;28;20139;-70
2022/03/19 06:13:47;;;;;;;3.80;1.40;;;;;;;;;;5091603;28;20055;-70
2022/03/19 06:16:13;;;;;;;1.92;0.77;;;;;;;;;;5091014;28;20520;-72
2022/03/19 06:18:39;;;;;;;4.70;1.23;;;;;;;;;;5091262;28;20044;-72
2022/03/19 06:21:05;;;;;;;3.25;1.17;;;;;;;;;;5071675;28;20044;-72
2022/03/19 06:23:32;;;;;;;3.33;1.10;;;;;;;;;;5091256;28;20106;-72
2022/03/19 06:25:58;;;;;;;2.08;0.93;;;;;;;;;;5091277;28;20426;-72
2022/03/19 06:28:24;;;;;;;5.35;1.05;;;;;;;;;;5072575;28;20057;-72
2022/03/19 06:30:50;;;;;;;2.90;0.95;;;;;;;;;;5091358;28;20117;-72
2022/03/19 06:33:16;;;;;;;2.58;0.90;;;;;;;;;;5090897;28;20131;-71
2022/03/19 06:38:29;;;;;;;2.53;1.00;;;;;;;;;;5091125;28;20051;-72
2022/03/19 06:40:57;;;;;;;3.53;0.70;;;;;;;;;;5090658;28;20093;-71
2022/03/19 06:43:24;;;;;;;3.47;0.88;;;;;;;;;;5091213;28;20044;-72
2022/03/19 06:45:50;;;;;;;4.07;1.00;;;;;;;;;;5090663;28;20041;-72
2022/03/19 06:48:16;;;;;;;1.90;0.77;;;;;;;;;;5090344;28;20109;-72
2022/03/19 06:50:43;;;;;;;3.40;1.45;;;;;;;;;;5090959;28;20074;-72
2022/03/19 06:53:09;;;;;;;3.63;1.00;;;;;;;;;;5072398;28;20539;-71
2022/03/19 06:55:35;;;;;;;3.20;0.80;;;;;;;;;;5089976;28;20123;-71
2022/03/19 06:58:01;;;;;;;3.55;1.08;;;;;;;;;;5090651;28;20040;-70
2022/03/19 07:00:27;;;;;;;3.60;1.30;;;;;;;;;;5090858;28;20044;-70
2022/03/19 07:02:55;;;;;;;4.10;1.27;;;;;;;;;;5090480;28;20126;-69
2022/03/19 07:05:21;;;;;;;2.67;1.00;;;;;;;;;;5090154;28;20044;-70
2022/03/19 07:07:47;;;;;;;4.65;1.17;;;;;;;;;;5090366;28;20056;-69
2022/03/19 07:10:15;;;;;;;3.10;0.82;;;;;;;;;;5090601;28;20048;-69
2022/03/19 07:12:44;;;;;;;2.75;0.93;;;;;;;;;;5039161;28;20059;-71
2022/03/19 07:15:17;;;;;;;2.80;0.90;;;;;;;;;;5089604;28;20072;-71
2022/03/19 07:17:44;;;;;;;2.03;0.82;;;;;;;;;;5090039;28;20044;-71
2022/03/19 07:20:11;;;;;;;3.20;0.90;;;;;;;;;;5089766;28;20418;-70
2022/03/19 07:22:57;;;;;;;2.03;0.77;;;;;;;;;;5089764;28;20179;-69
2022/03/19 07:25:24;;;;;;;3.95;0.93;;;;;;;;;;5054989;28;20055;-70
2022/03/19 07:27:51;;;;;;;4.13;1.13;;;;;;;;;;5089561;28;20039;-70
2022/03/19 07:30:17;;;;;;;3.50;0.90;;;;;;;;;;5090204;28;20040;-70
2022/03/19 07:32:43;;;;;;;4.25;1.10;;;;;;;;;;5089540;28;20040;-70
2022/03/19 07:35:09;;;;;;;3.65;0.90;;;;;;;;;;5089050;28;20094;-71
2022/03/19 07:37:37;;;;;;;2.78;1.17;;;;;;;;;;5089911;28;20218;-71
2022/03/19 07:40:04;;;;;;;3.05;0.98;;;;;;;;;;5089841;28;20062;-69
2022/03/19 07:42:30;;;;;;;5.05;1.10;;;;;;;;;;5071068;28;20055;-70
2022/03/19 07:44:56;;;;;;;3.70;1.05;;;;;;;;;;5089501;28;20036;-69
2022/03/19 07:47:22;;;;;;;6.88;1.70;;;;;;;;;;5089512;28;20133;-70
2022/03/19 07:49:48;;;;;;;3.35;1.00;;;;;;;;;;5089760;28;20056;-70
2022/03/19 07:52:15;;;;;;;3.63;1.25;;;;;;;;;;5071186;28;20406;-71
2022/03/19 07:54:41;;;;;;;5.22;1.17;;;;;;;;;;5089667;28;20130;-70
2022/03/19 07:57:11;;;;;;;4.78;1.13;;;;;;;;;;5089250;28;20059;-71
2022/03/19 07:59:41;;;;;;;5.60;1.90;;;;;;;;;;5088491;28;20464;-71
2022/03/19 08:02:07;;;;;;;5.40;1.20;;;;;;;;;;5070564;28;20546;-71
2022/03/19 08:04:33;;;;;;;2.60;0.95;;;;;;;;;;5070929;28;20044;-70
2022/03/19 08:06:59;;;;;;;3.60;1.23;;;;;;;;;;5089408;28;20043;-70
2022/03/19 08:09:25;;;;;;;3.67;1.10;;;;;;;;;;5054653;28;20107;-71
2022/03/19 08:11:52;;;;;;;3.33;0.93;;;;;;;;;;5070760;28;20078;-70
2022/03/19 08:14:19;;;;;;;5.43;0.90;;;;;;;;;;5088791;28;20048;-70
2022/03/19 08:16:46;;;;;;;2.83;0.95;;;;;;;;;;5089193;28;20413;-71
2022/03/19 08:19:12;;;;;;;4.88;1.25;;;;;;;;;;5089152;28;20125;-70
2022/03/19 08:21:39;;;;;;;3.80;1.10;;;;;;;;;;5088499;28;20078;-70
2022/03/19 08:24:08;;;;;;;2.78;1.10;;;;;;;;;;5089163;28;20063;-70
2022/03/19 08:26:35;;;;;;;2.83;0.90;;;;;;;;;;5088879;28;20063;-69
2022/03/19 08:29:02;;;;;;;4.35;1.20;;;;;;;;;;5088762;28;20101;-70
2022/03/19 08:31:28;;;;;;;4.05;1.10;;;;;;;;;;5088974;28;20113;-70
2022/03/19 08:33:56;;;;;;;4.00;1.65;;;;;;;;;;5088327;28;20123;-69
2022/03/19 08:36:22;;;;;;;6.25;1.35;;;;;;;;;;5088790;28;20047;-71
2022/03/19 08:41:38;;;;;;;5.32;1.20;;;;;;;;;;5059208;28;20425;-71
2022/03/19 08:44:05;;;;;;;4.95;1.10;;;;;;;;;;5088682;28;20456;-71
2022/03/19 08:46:31;;;;;;;3.03;0.98;;;;;;;;;;5070072;28;20052;-70
2022/03/19 08:48:57;;;;;;;4.00;1.25;;;;;;;;;;5087944;28;20044;-70
2022/03/19 08:51:42;;;;;;;3.05;1.00;;;;;;;;;;5088091;28;20494;-71
2022/03/19 08:54:14;;;;;;;3.53;0.93;;;;;;;;;;5068653;28;20043;-70
2022/03/19 08:56:40;;;;;;;2.90;0.80;;;;;;;;;;5087116;28;20048;-71
2022/03/19 08:59:06;;;;;;;3.08;1.10;;;;;;;;;;5087576;28;20125;-71
2022/03/19 09:01:33;;;;;;;3.15;1.15;;;;;;;;;;5087762;28;20192;-70
2022/03/19 09:03:59;;;;;;;4.55;1.00;;;;;;;;;;5088011;28;20091;-71
2022/03/19 09:06:25;;;;;;;4.03;1.00;;;;;;;;;;5086699;28;20413;-70
2022/03/19 09:08:51;;;;;;;5.80;0.90;;;;;;;;;;5069429;28;20051;-70
2022/03/19 09:11:18;;;;;;;4.57;1.10;;;;;;;;;;5087957;28;20130;-72
2022/03/19 09:13:48;;;;;;;2.78;0.80;;;;;;;;;;5087651;28;20044;-72
2022/03/19 09:16:15;;;;;;;6.95;1.35;;;;;;;;;;5087893;28;20092;-72
2022/03/19 09:18:41;;;;;;;3.50;1.05;;;;;;;;;;5069543;28;20087;-71
2022/03/19 09:21:07;;;;;;;8.70;2.17;;;;;;;;;;5088340;28;20051;-72
2022/03/19 09:23:33;;;;;;;3.55;1.05;;;;;;;;;;5088367;28;20498;-71
2022/03/19 09:25:59;;;;;;;5.60;1.00;;;;;;;;;;5087478;28;20809;-71
2022/03/19 09:28:25;;;;;;;4.72;1.20;;;;;;;;;;5088133;28;20044;-72
2022/03/19 09:30:51;;;;;;;3.22;1.27;;;;;;;;;;5088511;28;20522;-70
2022/03/19 09:33:18;;;;;;;4.47;1.42;;;;;;;;;;5091780;28;20433;-69
2022/03/19 09:35:45;;;;;;;3.97;1.25;;;;;;;;;;5079264;28;20051;-70
2022/03/19 09:38:12;;;;;;;3.50;1.10;;;;;;;;;;5097783;28;20039;-70
2022/03/19 09:40:40;;;;;;;5.18;1.70;;;;;;;;;;5106369;28;20035;-72
2022/03/19 09:43:06;;;;;;;7.45;1.48;;;;;;;;;;5090271;28;20193;-71
2022/03/19 09:45:34;;;;;;;7.55;1.55;;;;;;;;;;5108546;28;20196;-69
2022/03/19 09:48:00;;;;;;;6.45;1.95;;;;;;;;;;5088385;28;20512;-70
2022/03/19 09:50:27;;;;;;;5.28;1.50;;;;;;;;;;5108545;28;20050;-70
2022/03/19 09:52:54;;;;;;;5.72;1.80;;;;;;;;;;5089973;28;20096;-72
2022/03/19 09:55:21;;;;;;;6.97;1.83;;;;;;;;;;5090407;28;20391;-71
2022/03/19 09:57:47;;;;;;;6.22;1.33;;;;;;;;;;5108083;28;20044;-72
2022/03/19 10:00:14;;;;;;;7.75;1.60;;;;;;;;;;5108403;28;20055;-71
2022/03/19 10:02:55;;;;;;;8.20;1.92;;;;;;;;;;5092750;28;20496;-72
2022/03/19 10:10:58;;;;;;;7.90;2.17;;;;;;;;;;5091674;28;20040;-72
2022/03/19 10:13:26;;;;;;;4.05;1.58;;;;;;;;;;5073824;28;20090;-72
2022/03/19 10:15:52;;;;;;;10.35;2.33;;;;;;;;;;5072661;28;20043;-73
2022/03/19 10:18:18;;;;;;;8.40;2.55;;;;;;;;;;5091749;28;20055;-73
2022/03/19 10:20:44;;;;;;;9.43;2.58;;;;;;;;;;5073654;28;20051;-73
2022/03/19 10:23:10;;;;;;;9.15;2.58;;;;;;;;;;5057231;28;20044;-72
2022/03/19 10:25:36;;;;;;;7.55;2.67;;;;;;;;;;5091267;28;20089;-72
2022/03/19 10:28:08;;;;;;;8.07;3.13;;;;;;;;;;5072580;28;20112;-72
2022/03/19 10:30:39;;;;;;;8.18;2.90;;;;;;;;;;5073009;28;20482;-71
2022/03/19 10:33:07;;;;;;;11.05;2.97;;;;;;;;;;5056277;28;20795;-75
2022/03/19 10:35:35;;;;;;;8.18;2.90;;;;;;;;;;5073122;28;20100;-73
2022/03/19 10:38:05;;;;;;;8.00;2.90;;;;;;;;;;5073053;28;20048;-71
2022/03/19 10:40:46;;;;;;;10.23;3.33;;;;;;;;;;5090995;28;20060;-72
2022/03/19 10:43:12;;;;;;;10.25;3.30;;;;;;;;;;5091316;28;20068;-72
2022/03/19 10:45:43;;;;;;;10.82;3.45;;;;;;;;;;5097606;28;20048;-70
2022/03/19 10:48:11;;;;;;;9.85;4.03;;;;;;;;;;5110358;28;20047;-73
2022/03/19 10:50:39;;;;;;;9.93;3.60;;;;;;;;;;5093276;28;20126;-71
2022/03/19 10:53:06;;;;;;;9.18;3.38;;;;;;;;;;5111529;28;20044;-71
2022/03/19 10:55:32;;;;;;;8.07;3.42;;;;;;;;;;5111412;28;20067;-70
2022/03/19 10:57:58;;;;;;;7.85;3.58;;;;;;;;;;5111279;28;20494;-70
2022/03/19 11:00:24;;;;;;;8.68;3.17;;;;;;;;;;5109792;28;20522;-70
2022/03/19 11:02:54;;;;;;;11.98;3.53;;;;;;;;;;5093426;28;20040;-71
2022/03/19 11:05:21;;;;;;;10.23;3.85;;;;;;;;;;5101095;28;20119;-70
2022/03/19 11:07:48;;;;;;;10.27;4.00;;;;;;;;;;5054268;28;20091;-69
2022/03/19 11:10:15;;;;;;;8.95;3.45;;;;;;;;;;5070071;28;20049;-70
2022/03/19 11:12:50;;;;;;;8.90;3.60;;;;;;;;;;5052748;28;20049;-70
2022/03/19 11:15:17;;;;;;;8.43;3.58;;;;;;;;;;5080748;28;20048;-71
2022/03/19 11:17:45;;;;;;;8.50;3.47;;;;;;;;;;5096363;28;20414;-71
2022/03/19 11:20:12;;;;;;;9.68;3.88;;;;;;;;;;5090211;28;20073;-70
2022/03/19 11:22:42;;;;;;;9.77;3.55;;;;;;;;;;5090928;28;20207;-70
2022/03/19 11:25:16;;;;;;;8.85;3.40;;;;;;;;;;5090102;28;20040;-71
2022/03/19 11:27:44;;;;;;;10.40;3.78;;;;;;;;;;5072007;28;20558;-71
2022/03/19 11:30:29;;;;;;;8.02;3.15;;;;;;;;;;5072018;28;20040;-70
2022/03/19 11:33:10;;;;;;;8.60;3.13;;;;;;;;;;5055701;28;20059;-70
2022/03/19 11:35:38;;;;;;;6.88;2.80;;;;;;;;;;5068013;28;20048;-72
2022/03/19 11:38:18;;;;;;;7.63;3.30;;;;;;;;;;5069645;28;20044;-72
2022/03/19 11:40:57;;;;;;;7.43;3.30;;;;;;;;;;5069687;28;20051;-71
2022/03/19 11:43:27;;;;;;;8.60;3.55;;;;;;;;;;5088312;28;20051;-72
2022/03/19 11:46:12;;;;;;;9.40;3.30;;;;;;;;;;5105590;28;20111;-73
2022/03/19 11:48:45;;;;;;;6.32;3.00;;;;;;;;;;5110008;28;20055;-73
2022/03/19 11:51:18;;;;;;;6.72;3.17;;;;;;;;;;5108874;28;20112;-73
2022/03/19 11:53:59;;;;;;;8.65;3.00;;;;;;;;;;5110335;28;20039;-73
2022/03/19 11:56:49;;;;;;;7.78;3.10;;;;;;;;;;5110299;28;20488;-71
2022/03/19 11:59:27;;;;;;;6.43;2.75;;;;;;;;;;5091987;28;20043;-73
2022/03/19 12:01:56;;;;;;;7.30;2.70;;;;;;;;;;5091446;28;20390;-73
2022/03/19 12:04:24;;;;;;;9.40;2.73;;;;;;;;;;5105346;28;20301;-71
2022/03/19 12:06:57;;;;;;;7.82;2.53;;;;;;;;;;5067152;28;20040;-70
2022/03/19 12:09:33;;;;;;;7.63;2.83;;;;;;;;;;5110094;28;20485;-70
2022/03/19 12:12:11;;;;;;;8.63;3.20;;;;;;;;;;5109643;28;20050;-73
2022/03/19 12:14:40;;;;;;;8.20;2.72;;;;;;;;;;5109915;28;20046;-72
2022/03/19 12:17:19;;;;;;;9.50;3.25;;;;;;;;;;5091206;28;20054;-71
2022/03/19 12:19:54;;;;;;;8.45;2.90;;;;;;;;;;5089392;28;20505;-70
2022/03/19 12:22:26;;;;;;;6.20;2.60;;;;;;;;;;5091783;28;20223;-73
2022/03/19 12:24:58;;;;;;;8.93;3.13;;;;;;;;;;5109559;28;20089;-74
2022/03/19 12:27:24;;;;;;;9.30;2.88;;;;;;;;;;5109510;28;20130;-74
2022/03/19 12:29:50;;;;;;;8.98;3.03;;;;;;;;;;5090919;28;20508;-73
2022/03/19 12:32:16;;;;;;;7.40;2.72;;;;;;;;;;5105353;28;20079;-74
2022/03/19 12:34:44;;;;;;;6.57;2.90;;;;;;;;;;5091299;28;20051;-73
2022/03/19 12:37:10;;;;;;;7.97;2.97;;;;;;;;;;5109747;28;20050;-75
2022/03/19 12:39:36;;;;;;;7.88;2.85;;;;;;;;;;5109583;28;20101;-74
2022/03/19 12:42:03;;;;;;;8.13;2.67;;;;;;;;;;5109559;28;20515;-74
2022/03/19 12:44:29;;;;;;;7.45;2.58;;;;;;;;;;5109548;28;20163;-75
2022/03/19 12:47:00;;;;;;;6.25;2.38;;;;;;;;;;5081059;28;20035;-72
2022/03/19 12:49:28;;;;;;;5.95;2.30;;;;;;;;;;5089119;28;20055;-72
2022/03/19 12:51:54;;;;;;;4.55;2.13;;;;;;;;;;5094694;28;20332;-72
2022/03/19 12:54:20;;;;;;;6.18;2.53;;;;;;;;;;5109786;28;20112;-73
2022/03/19 12:56:47;;;;;;;6.20;2.15;;;;;;;;;;5108840;28;20093;-74
2022/03/19 12:59:21;;;;;;;6.45;2.33;;;;;;;;;;5103663;28;20127;-73
2022/03/19 13:01:47;;;;;;;4.68;2.20;;;;;;;;;;5089251;28;20055;-71
2022/03/19 13:04:18;;;;;;;4.63;2.05;;;;;;;;;;5089039;28;20051;-71
2022/03/19 13:06:44;;;;;;;5.90;2.22;;;;;;;;;;5088825;28;20106;-74
2022/03/19 13:09:11;;;;;;;4.38;1.60;;;;;;;;;;5087258;28;20048;-74
2022/03/19 13:11:44;;;;;;;5.63;2.10;;;;;;;;;;5070107;28;20040;-74
2022/03/19 13:14:12;;;;;;;4.65;1.95;;;;;;;;;;5070072;28;20083;-74
2022/03/19 13:16:39;;;;;;;6.63;2.03;;;;;;;;;;5070124;28;20484;-72
2022/03/19 13:19:06;;;;;;;23.05;2.70;;;;;;;;;;5070298;28;20105;-71
2022/03/19 13:21:36;;;;;;;6.03;2.10;;;;;;;;;;5087732;28;20050;-72
2022/03/19 13:24:02;;;;;;;8.60;2.05;;;;;;;;;;5088064;28;20115;-72
2022/03/19 13:26:29;;;;;;;6.97;2.08;;;;;;;;;;5100372;28;20050;-73
2022/03/19 13:28:59;;;;;;;6.40;1.92;;;;;;;;;;5108295;28;20477;-73
2022/03/19 13:31:25;;;;;;;6.00;2.13;;;;;;;;;;5090238;28;20051;-73
2022/03/19 13:33:51;;;;;;;6.93;2.38;;;;;;;;;;5090114;28;20155;-72
2022/03/19 13:36:18;;;;;;;5.63;1.63;;;;;;;;;;5101542;28;20163;-72
2022/03/19 13:38:45;;;;;;;5.45;1.90;;;;;;;;;;5087870;28;20499;-72
2022/03/19 13:41:18;;;;;;;6.88;2.30;;;;;;;;;;5072059;28;20494;-72
2022/03/19 13:43:44;;;;;;;6.20;2.25;;;;;;;;;;5092091;28;20359;-72
2022/03/19 13:46:11;;;;;;;6.88;2.10;;;;;;;;;;5073667;28;20052;-73
2022/03/19 13:48:37;;;;;;;4.57;1.75;;;;;;;;;;5094310;28;20130;-72
2022/03/19 13:51:04;;;;;;;5.90;2.50;;;;;;;;;;5091888;28;20048;-72
2022/03/19 13:53:44;;;;;;;5.57;1.92;;;;;;;;;;5092131;28;20148;-73
2022/03/19 13:56:10;;;;;;;4.82;1.58;;;;;;;;;;5092027;28;20130;-72
2022/03/19 13:58:37;;;;;;;3.92;1.90;;;;;;;;;;5092071;28;20040;-72
2022/03/19 14:01:13;;;;;;;5.22;1.80;;;;;;;;;;5091990;28;20044;-73
2022/03/19 14:03:40;;;;;;;5.80;1.95;;;;;;;;;;5073212;28;20078;-72
2022/03/19 14:06:07;;;;;;;4.32;1.75;;;;;;;;;;5091849;28;20048;-72
2022/03/19 14:08:34;;;;;;;6.28;1.60;;;;;;;;;;5092539;28;20040;-72
2022/03/19 14:11:00;;;;;;;3.78;1.60;;;;;;;;;;5091060;28;20050;-72
2022/03/19 14:13:38;;;;;;;5.85;1.95;;;;;;;;;;5090982;28;20040;-71
2022/03/19 14:16:08;;;;;;;4.78;1.95;;;;;;;;;;5091752;28;20123;-72
2022/03/19 14:18:35;;;;;;;4.80;2.00;;;;;;;;;;5091216;28;20486;-72
2022/03/19 14:21:03;;;;;;;3.55;1.60;;;;;;;;;;5091620;28;20084;-72
2022/03/19 14:23:31;;;;;;;6.22;2.30;;;;;;;;;;5097159;28;20052;-73
2022/03/19 14:25:57;;;;;;;5.93;1.80;;;;;;;;;;5111665;28;20040;-73
2022/03/19 14:28:23;;;;;;;3.75;1.58;;;;;;;;;;5112223;28;20101;-73
2022/03/19 14:30:50;;;;;;;4.60;1.58;;;;;;;;;;5111463;28;20036;-73
2022/03/19 14:33:17;;;;;;;5.47;1.77;;;;;;;;;;5110762;28;20390;-72
2022/03/19 14:35:50;;;;;;;5.10;1.55;;;;;;;;;;5111457;28;20051;-73
2022/03/19 14:38:18;;;;;;;5.00;1.95;;;;;;;;;;5049535;28;20087;-73
2022/03/19 14:40:45;;;;;;;4.90;1.73;;;;;;;;;;5052187;28;20041;-72
2022/03/19 14:43:15;;;;;;;3.53;1.67;;;;;;;;;;5076380;28;20082;-73
2022/03/19 14:45:41;;;;;;;4.38;1.83;;;;;;;;;;5090207;28;20052;-72
2022/03/19 14:48:07;;;;;;;4.25;1.70;;;;;;;;;;5090190;28;20522;-72
2022/03/19 14:50:33;;;;;;;3.78;1.58;;;;;;;;;;5072116;28;20093;-72
2022/03/19 14:52:59;;;;;;;4.72;1.42;;;;;;;;;;5089980;28;20044;-80
2022/03/19 14:55:26;;;;;;;4.45;1.42;;;;;;;;;;5090547;28;20063;-79
2022/03/19 14:57:52;;;;;;;3.78;1.48;;;;;;;;;;5079460;28;20050;-76
2022/03/19 15:00:19;;;;;;;5.47;1.73;;;;;;;;;;5092439;28;20528;-75
2022/03/19 15:02:45;;;;;;;6.30;1.63;;;;;;;;;;5093473;28;20149;-77